Airfield :
LOGIN :

Register | Disclaimer

   EN    FR    IT 

 










Legend :    VFR   Marginal VFR   IFR   Intensive IFR   Very Intensive IFR
Visi :
Ceiling :
>= 8 km
>= 3000ft
5 to 8 km
1000 to 3000 ft
1500m to 5 km
500 to 1000 ft
800 to 1500m
200 to 500 ft
< 800m
< 200 ft
Symbols :   Thunderstorms  Fog  Heavy snow  Heavy precipitations  Wind > 20 kt
SIGMETs :     Misc.  Thunderstorms  Icing  Turbulence  Mountain Waves  Volcanic Ashes






- Airport Elevation : 870 ft
- IATA code : ETZ


LFJL - Metz Nancy Lorraine

CURRENT METAR :
  • 141530Z AUTO 29008KT 260V320 9999 FEW047 21/12 Q1020 NOSIG

EXPIRED METARs :
  • 141500Z AUTO 28008KT 9999 FEW046 22/12 Q1020 NOSIG
  • 141430Z AUTO 28009KT 250V310 CAVOK 22/12 Q1021 NOSIG
  • 141400Z AUTO 27011KT CAVOK 21/11 Q1021 NOSIG
  • 141330Z AUTO 26009KT CAVOK 21/11 Q1021 NOSIG
  • 141300Z AUTO 27009KT CAVOK 21/12 Q1022 NOSIG
  • 141230Z AUTO 28008KT 250V310 CAVOK 21/12 Q1022 NOSIG
  • 141200Z AUTO 27010KT 240V310 9999 FEW040 21/12 Q1022 NOSIG
  • 141130Z AUTO 26007KT 230V300 CAVOK 21/11 Q1023 NOSIG
  • 141100Z AUTO 26006KT 230V300 9999 BKN041 21/09 Q1023 NOSIG

TAF TAF LFJL
Valid from the 14 at 12:00 until the 15 at 12:00 UTC


141100Z 1412/1512 27008KT CAVOK
PROB40
TEMPO 1502/1506 -SHRA BKN014 FEW025TCU
PROB40
TEMPO 1506/1510 BKN011



MET'MAP, your aeronautical weather chart ! - Copyright ORBIFLY December 2007 - Disclaimer

ORBIFLY MET'MAP TEAM :

Programming & Development : Alexandra Zaïnal
Original concept : Baudouin d'Aumeries
Technical & hardware support : Manuel Goepfert
Assistance : Marc-Olivier Méhu




SOURCES & CREDITS :

   NOAA